createdAt,value
2018-11-11T00:01:24.706Z,55.8
2018-11-11T00:06:20.331Z,56.1
2018-11-11T00:11:15.828Z,56.2
2018-11-11T00:16:11.465Z,55.9
2018-11-11T00:21:07.305Z,56
2018-11-11T00:26:02.964Z,55.6
2018-11-11T00:30:59.125Z,55.5
2018-11-11T00:35:54.536Z,56.1
2018-11-11T00:40:49.717Z,56.1
2018-11-11T00:45:45.322Z,56
2018-11-11T00:50:41.324Z,55.8
2018-11-11T00:55:37.050Z,56.1
2018-11-11T01:00:32.597Z,55.9
2018-11-11T01:05:28.164Z,56.1
2018-11-11T01:10:23.413Z,56.2
2018-11-11T01:15:19.029Z,56.6
2018-11-11T01:20:14.917Z,56.7
2018-11-11T01:25:10.597Z,56.6
2018-11-11T01:30:06.405Z,56.8
2018-11-11T01:35:01.881Z,56.7
2018-11-11T01:39:57.410Z,57.1
2018-11-11T01:44:52.989Z,56.8
2018-11-11T01:49:49.064Z,56.8
2018-11-11T01:54:44.907Z,57
2018-11-11T01:59:40.880Z,57.6
2018-11-11T02:04:36.663Z,57.5
2018-11-11T02:09:32.212Z,57.1
2018-11-11T02:14:28.076Z,56.7
2018-11-11T02:19:23.974Z,56.4
2018-11-11T02:24:19.815Z,57.1
2018-11-11T02:29:15.385Z,56.6
2018-11-11T02:34:11.102Z,57
2018-11-11T02:39:06.803Z,57.1
2018-11-11T02:44:02.350Z,57.6
2018-11-11T02:48:57.942Z,57.7
2018-11-11T02:53:53.671Z,57.3
2018-11-11T02:58:49.193Z,57.4
2018-11-11T03:03:44.354Z,57.6
2018-11-11T03:08:40.267Z,57.2
2018-11-11T03:13:36.064Z,57.1
2018-11-11T03:18:32.035Z,57.2
2018-11-11T03:23:27.975Z,56.9
2018-11-11T03:28:23.346Z,56.7
2018-11-11T03:33:19.244Z,56.7
2018-11-11T03:38:15.085Z,57.3
2018-11-11T03:43:10.746Z,57.3
2018-11-11T03:48:06.572Z,57.5
2018-11-11T03:53:02.163Z,57.2
2018-11-11T03:57:58.505Z,56.9
2018-11-11T04:02:54.110Z,56.9
2018-11-11T04:07:49.647Z,57.4
2018-11-11T04:12:45.468Z,57.5
2018-11-11T04:17:41.133Z,57.5
2018-11-11T04:22:36.809Z,56.8
2018-11-11T04:27:32.569Z,56.5
2018-11-11T04:32:26.941Z,56.3
2018-11-11T04:37:22.565Z,56.4
2018-11-11T04:42:18.353Z,56.7
2018-11-11T04:47:14.260Z,57.2
2018-11-11T04:52:09.867Z,57.4
2018-11-11T04:57:05.864Z,57.5
2018-11-11T05:02:01.443Z,57.1
2018-11-11T05:06:57.273Z,57.3
2018-11-11T05:11:52.980Z,57.8
2018-11-11T05:16:48.677Z,57.7
2018-11-11T05:21:44.647Z,57.6
2018-11-11T05:26:40.505Z,57.5
2018-11-11T05:31:36.147Z,57.8
2018-11-11T05:36:31.864Z,58.1
2018-11-11T05:41:27.570Z,58
2018-11-11T05:46:23.249Z,58.5
2018-11-11T05:51:19.011Z,58.5
2018-11-11T05:56:15.197Z,58.6
2018-11-11T06:01:10.997Z,58.7
2018-11-11T06:06:06.980Z,58.5
2018-11-11T06:11:02.755Z,58.8
2018-11-11T06:15:58.498Z,59.2
2018-11-11T06:20:54.375Z,59.5
2018-11-11T06:25:50.091Z,59.5
2018-11-11T06:30:45.749Z,60
2018-11-11T06:35:41.104Z,59.5
2018-11-11T06:40:36.829Z,59.7
2018-11-11T06:45:33.001Z,59.7
2018-11-11T06:50:28.831Z,60
2018-11-11T06:55:24.980Z,59.4
2018-11-11T07:00:20.714Z,59.6
2018-11-11T07:05:16.146Z,59.6
2018-11-11T07:10:11.846Z,59.2
2018-11-11T07:15:07.619Z,59.1
2018-11-11T07:20:03.584Z,58.7
2018-11-11T07:24:59.498Z,59
2018-11-11T07:29:55.323Z,58.9
2018-11-11T07:34:51.045Z,58.7
2018-11-11T07:39:46.532Z,58.8
2018-11-11T07:44:42.029Z,58.5
2018-11-11T07:49:37.615Z,58.7
2018-11-11T07:54:34.021Z,58.6
2018-11-11T07:59:29.471Z,58.8
2018-11-11T08:04:25.204Z,58.2
2018-11-11T08:09:21.061Z,58.3
2018-11-11T08:14:16.905Z,58.2
2018-11-11T08:19:12.835Z,57.9
2018-11-11T08:24:08.491Z,57.6
2018-11-11T08:29:04.219Z,57.3
2018-11-11T08:33:59.727Z,57.2
2018-11-11T08:38:55.701Z,57.3
2018-11-11T08:43:50.988Z,57.2
2018-11-11T08:48:46.769Z,57
2018-11-11T08:53:43.099Z,56.9
2018-11-11T08:58:39.263Z,56.6
2018-11-11T09:03:34.959Z,56.5
2018-11-11T09:08:30.939Z,56.5
2018-11-11T09:13:26.968Z,56.3
2018-11-11T09:18:23.018Z,56.2
2018-11-11T09:23:18.986Z,55.7
2018-11-11T09:28:15.008Z,55.4
2018-11-11T09:33:11.194Z,55.2
2018-11-11T09:38:06.791Z,55.3
2018-11-11T09:43:02.546Z,55.2
2018-11-11T09:47:58.409Z,54.7
2018-11-11T09:52:54.458Z,53.9
2018-11-11T09:57:50.797Z,53.2
2018-11-11T10:02:46.082Z,52.9
2018-11-11T10:07:41.956Z,52.5
2018-11-11T10:12:37.819Z,52.3
2018-11-11T10:17:34.017Z,52.2
2018-11-11T10:22:30.097Z,51.8
2018-11-11T10:27:26.563Z,51.3
2018-11-11T10:32:22.303Z,51.3
2018-11-11T10:37:18.305Z,51.2
2018-11-11T10:42:14.279Z,51
2018-11-11T10:47:10.346Z,50.8
2018-11-11T10:52:06.096Z,51
2018-11-11T10:57:01.154Z,51
2018-11-11T11:01:57.367Z,50.5
2018-11-11T11:06:53.361Z,50.3
2018-11-11T11:11:49.237Z,50.3
2018-11-11T11:16:45.264Z,49.6
2018-11-11T11:21:41.263Z,48.9
2018-11-11T11:26:37.283Z,48.4
2018-11-11T11:31:34.457Z,48.5
2018-11-11T11:36:31.003Z,47.6
2018-11-11T11:41:26.526Z,47.2
2018-11-11T11:46:22.381Z,46.5
2018-11-11T11:51:18.516Z,46.2
2018-11-11T11:56:14.872Z,45.6
2018-11-11T12:01:10.823Z,45.5
2018-11-11T12:06:07.043Z,44.5
2018-11-11T12:11:03.157Z,43.6
2018-11-11T12:15:58.963Z,44
2018-11-11T12:20:55.239Z,44
2018-11-11T12:25:51.497Z,43.5
2018-11-11T12:30:47.583Z,43.7
2018-11-11T12:35:43.263Z,43.6
2018-11-11T12:40:38.796Z,42.9
2018-11-11T12:45:35.024Z,42.9
2018-11-11T12:50:30.837Z,43.2
2018-11-11T12:55:26.298Z,42.9
2018-11-11T13:00:22.300Z,43.1
2018-11-11T13:05:18.279Z,43.4
2018-11-11T13:10:14.121Z,43.6
2018-11-11T13:15:10.089Z,43
2018-11-11T13:20:06.318Z,43.6
2018-11-11T13:25:02.215Z,43.7
2018-11-11T13:29:58.270Z,43.8
2018-11-11T13:34:54.036Z,43.8
2018-11-11T13:39:49.180Z,44.2
2018-11-11T13:44:44.825Z,44.4
2018-11-11T13:49:41.149Z,44.7
2018-11-11T13:54:36.796Z,45
2018-11-11T13:59:33.029Z,45.3
2018-11-11T14:04:28.948Z,45.5
2018-11-11T14:09:24.944Z,45.7
2018-11-11T14:14:20.752Z,45.7
2018-11-11T14:19:17.327Z,45.9
2018-11-11T14:24:12.912Z,46.2
2018-11-11T14:29:09.100Z,46.3
2018-11-11T14:34:05.050Z,46.4
2018-11-11T14:39:00.784Z,46.7
2018-11-11T14:43:56.701Z,46.8
2018-11-11T14:48:52.719Z,47
2018-11-11T14:53:48.842Z,47
2018-11-11T14:58:45.298Z,47.3
2018-11-11T15:03:41.107Z,47.4
2018-11-11T15:08:37.194Z,47.5
2018-11-11T15:13:33.129Z,47.5
2018-11-11T15:18:29.306Z,47.1
2018-11-11T15:23:25.313Z,47.2
2018-11-11T15:28:21.204Z,47.3
2018-11-11T15:33:17.119Z,47.4
2018-11-11T15:38:13.102Z,47.4
2018-11-11T15:43:09.034Z,47.5
2018-11-11T15:48:04.966Z,47.5
2018-11-11T15:53:01.053Z,47.7
2018-11-11T15:57:57.221Z,47.7
2018-11-11T16:02:53.109Z,47.9
2018-11-11T16:07:48.999Z,48
2018-11-11T16:12:44.796Z,48.1
2018-11-11T16:17:40.732Z,48.3
2018-11-11T16:22:36.590Z,48.4
2018-11-11T16:27:32.291Z,48.8
2018-11-11T16:32:28.258Z,48.9
2018-11-11T16:37:24.255Z,49.1
2018-11-11T16:42:20.312Z,49
2018-11-11T16:47:16.200Z,49.1
2018-11-11T16:52:12.133Z,49.4
2018-11-11T16:57:07.895Z,49.5
2018-11-11T17:02:03.583Z,49.8
2018-11-11T17:06:59.517Z,49.9
2018-11-11T17:11:55.428Z,49.9
2018-11-11T17:16:51.470Z,50.1
2018-11-11T17:21:47.634Z,50.2
2018-11-11T17:26:43.501Z,50.5
2018-11-11T17:31:39.561Z,50.9
2018-11-11T17:36:35.185Z,51.3
2018-11-11T17:41:31.100Z,51.4
2018-11-11T17:46:26.928Z,51.1
2018-11-11T17:51:22.640Z,51.2
2018-11-11T17:56:18.404Z,51.8
2018-11-11T18:01:14.435Z,51.8
2018-11-11T18:06:10.576Z,51.5
2018-11-11T18:11:06.409Z,52.1
2018-11-11T18:16:04.050Z,51.9
2018-11-11T18:20:59.316Z,52
2018-11-11T18:25:54.862Z,52.4
2018-11-11T18:30:50.851Z,52.7
2018-11-11T18:35:46.407Z,52.4
2018-11-11T18:40:42.447Z,52.5
2018-11-11T18:45:38.287Z,52.6
2018-11-11T18:50:34.000Z,53
2018-11-11T18:55:30.204Z,53.6
2018-11-11T19:00:26.383Z,53.2
2018-11-11T19:05:22.188Z,53.2
2018-11-11T19:10:18.365Z,53.5
2018-11-11T19:15:14.069Z,53.7
2018-11-11T19:20:09.894Z,53.9
2018-11-11T19:25:06.440Z,54.1
2018-11-11T19:30:02.436Z,54.1
2018-11-11T19:34:58.608Z,54.3
2018-11-11T19:39:54.334Z,54.4
2018-11-11T19:44:50.060Z,54.2
2018-11-11T19:49:46.000Z,53.9
2018-11-11T19:54:41.735Z,54.2
2018-11-11T19:59:37.851Z,54.2
2018-11-11T20:04:33.641Z,54.7
2018-11-11T20:09:29.738Z,54.3
2018-11-11T20:14:25.529Z,54.9
2018-11-11T20:19:21.674Z,54.3
2018-11-11T20:24:17.788Z,54.1
2018-11-11T20:29:14.055Z,54.4
2018-11-11T20:34:09.955Z,54.2
2018-11-11T20:39:05.861Z,54.4
2018-11-11T20:44:01.659Z,55.1
2018-11-11T20:48:57.292Z,54.8
2018-11-11T20:53:53.310Z,55.1
2018-11-11T20:58:49.440Z,54.7
2018-11-11T21:03:45.173Z,54.7
2018-11-11T21:08:40.878Z,54.7
2018-11-11T21:13:36.913Z,54.8
2018-11-11T21:18:33.086Z,54.9
2018-11-11T21:23:28.801Z,55.2
2018-11-11T21:28:24.678Z,55.2
2018-11-11T21:33:20.547Z,55.5
2018-11-11T21:38:16.445Z,55.5
2018-11-11T21:43:12.149Z,55.2
2018-11-11T21:48:08.086Z,55.4
2018-11-11T21:53:04.766Z,55
2018-11-11T21:58:00.800Z,54.7
2018-11-11T22:02:56.817Z,54.7
2018-11-11T22:07:52.541Z,55
2018-11-11T22:12:48.469Z,54.7
2018-11-11T22:17:44.267Z,55
2018-11-11T22:22:40.259Z,55.3
2018-11-11T22:27:35.784Z,55
2018-11-11T22:32:31.517Z,55
2018-11-11T22:37:27.280Z,55.7
2018-11-11T22:42:23.235Z,55.9
2018-11-11T22:47:19.026Z,55.8
2018-11-11T22:52:15.264Z,56.3
2018-11-11T22:57:11.094Z,56.7
2018-11-11T23:02:07.391Z,56.6
2018-11-11T23:07:03.161Z,56.7
2018-11-11T23:11:58.869Z,56.6
2018-11-11T23:16:54.670Z,56.3
2018-11-11T23:21:50.635Z,56.7
2018-11-11T23:26:46.334Z,56.8
2018-11-11T23:31:42.239Z,56.4
2018-11-11T23:36:38.188Z,56.7
2018-11-11T23:41:34.029Z,56.9
2018-11-11T23:46:29.840Z,57.1
2018-11-11T23:51:26.029Z,57.2
2018-11-11T23:56:22.027Z,56.6
